Time,TemperatureF,DewpointF,PressureIn,WindDirection,WindDirectionDegrees,WindSpeedMPH,WindSpeedGustMPH,Humidity,HourlyPrecipIn,Conditions,Clouds,dailyrainin,SolarRadiationWatts/m^2,SoftwareType,DateUTC
2013-01-10 00:04:00,30.0,29.3,30.07,South,175,0.0,0.0,97,0.00,,,0.00,0.0,WUHU216DAVISVP2,2013-01-10 00:04:00,
2013-01-10 00:09:00,30.0,29.2,30.07,South,176,0.0,0.0,97,0.00,,,0.00,0.0,WUHU216DAVISVP2,2013-01-10 00:09:00,
2013-01-10 00:14:00,29.9,29.1,30.07,South,175,0.0,0.0,97,0.00,,,0.00,0.0,WUHU216DAVISVP2,2013-01-10 00:14:00,
2013-01-10 00:19:00,29.8,29.0,30.07,South,175,0.0,0.0,97,0.00,,,0.00,0.0,WUHU216DAVISVP2,2013-01-10 00:19:00,
2013-01-10 00:24:00,29.8,29.0,30.07,South,175,0.0,0.0,97,0.00,,,0.00,0.0,WUHU216DAVISVP2,2013-01-10 00:24:00,
2013-01-10 00:29:00,29.8,29.0,30.07,South,175,0.0,0.0,97,0.00,,,0.00,0.0,WUHU216DAVISVP2,2013-01-10 00:29:00,
2013-01-10 00:34:00,29.7,28.9,30.06,South,175,0.0,0.0,97,0.00,,,0.00,0.0,WUHU216DAVISVP2,2013-01-10 00:34:00,
2013-01-10 00:39:00,29.7,28.9,30.06,South,176,0.0,0.0,97,0.00,,,0.00,0.0,WUHU216DAVISVP2,2013-01-10 00:39:00,
2013-01-10 00:44:00,29.7,28.9,30.06,South,176,0.0,0.0,97,0.00,,,0.00,0.0,WUHU216DAVISVP2,2013-01-10 00:44:00,
2013-01-10 00:49:00,29.6,28.8,30.06,South,175,0.0,0.0,97,0.00,,,0.00,0.0,WUHU216DAVISVP2,2013-01-10 00:49:00,
2013-01-10 00:54:00,29.6,28.8,30.06,South,175,0.0,0.0,97,0.00,,,0.00,0.0,WUHU216DAVISVP2,2013-01-10 00:54:00,
2013-01-10 00:59:00,29.6,28.8,30.06,South,176,0.0,0.0,97,0.00,,,0.00,0.0,WUHU216DAVISVP2,2013-01-10 00:59:00,
2013-01-10 01:04:00,29.5,28.7,30.06,South,175,0.0,0.0,97,0.00,,,0.00,0.0,WUHU216DAVISVP2,2013-01-10 01:04:00,
2013-01-10 01:09:00,29.5,28.7,30.06,South,176,0.0,0.0,97,0.00,,,0.00,0.0,WUHU216DAVISVP2,2013-01-10 01:09:00,
2013-01-10 01:14:00,29.4,28.6,30.06,South,175,0.0,0.0,97,0.00,,,0.00,0.0,WUHU216DAVISVP2,2013-01-10 01:14:00,
2013-01-10 01:19:00,29.3,28.5,30.06,South,175,0.0,0.0,97,0.00,,,0.00,0.0,WUHU216DAVISVP2,2013-01-10 01:19:00,
2013-01-10 01:24:00,29.2,28.4,30.06,South,176,0.0,0.0,97,0.00,,,0.00,0.0,WUHU216DAVISVP2,2013-01-10 01:24:00,
2013-01-10 01:29:00,29.1,28.3,30.06,South,175,0.0,0.0,97,0.00,,,0.00,0.0,WUHU216DAVISVP2,2013-01-10 01:29:00,
2013-01-10 01:34:00,29.0,28.2,30.05,South,175,0.0,0.0,97,0.00,,,0.00,0.0,WUHU216DAVISVP2,2013-01-10 01:34:00,
2013-01-10 01:39:00,28.8,28.0,30.06,South,175,0.0,0.0,97,0.00,,,0.00,0.0,WUHU216DAVISVP2,2013-01-10 01:39:00,
2013-01-10 01:44:00,28.7,27.9,30.06,South,175,0.0,0.0,97,0.00,,,0.00,0.0,WUHU216DAVISVP2,2013-01-10 01:44:00,
2013-01-10 01:49:00,28.7,28.0,30.05,South,175,0.0,0.0,97,0.00,,,0.00,0.0,WUHU216DAVISVP2,2013-01-10 01:49:00,
2013-01-10 01:54:00,28.6,27.9,30.05,South,175,0.0,0.0,97,0.00,,,0.00,0.0,WUHU216DAVISVP2,2013-01-10 01:54:00,
2013-01-10 01:59:00,28.6,27.8,30.06,South,175,0.0,0.0,97,0.00,,,0.00,0.0,WUHU216DAVISVP2,2013-01-10 01:59:00,
2013-01-10 02:04:00,28.5,27.7,30.05,South,175,0.0,0.0,97,0.00,,,0.00,0.0,WUHU216DAVISVP2,2013-01-10 02:04:00,
2013-01-10 02:09:00,28.5,27.7,30.05,South,175,0.0,0.0,97,0.00,,,0.00,0.0,WUHU216DAVISVP2,2013-01-10 02:09:00,
2013-01-10 02:14:00,28.4,27.7,30.05,South,176,0.0,0.0,97,0.00,,,0.00,0.0,WUHU216DAVISVP2,2013-01-10 02:14:00,
2013-01-10 02:19:00,28.4,27.7,30.05,South,176,0.0,0.0,97,0.00,,,0.00,0.0,WUHU216DAVISVP2,2013-01-10 02:19:00,
2013-01-10 02:24:00,28.3,27.5,30.06,South,175,0.0,0.0,97,0.00,,,0.00,0.0,WUHU216DAVISVP2,2013-01-10 02:24:00,
2013-01-10 02:29:00,28.4,27.6,30.05,South,175,0.0,0.0,97,0.00,,,0.00,0.0,WUHU216DAVISVP2,2013-01-10 02:29:00,
2013-01-10 02:34:00,28.3,27.5,30.05,South,176,0.0,0.0,97,0.00,,,0.00,0.0,WUHU216DAVISVP2,2013-01-10 02:34:00,
2013-01-10 02:39:00,28.3,27.6,30.05,South,175,0.0,0.0,97,0.00,,,0.00,0.0,WUHU216DAVISVP2,2013-01-10 02:39:00,
2013-01-10 02:44:00,28.3,27.6,30.05,South,175,0.0,0.0,97,0.00,,,0.00,0.0,WUHU216DAVISVP2,2013-01-10 02:44:00,
2013-01-10 02:49:00,28.3,27.5,30.05,South,176,0.0,0.0,97,0.00,,,0.00,0.0,WUHU216DAVISVP2,2013-01-10 02:49:00,
2013-01-10 02:54:00,28.3,27.5,30.05,South,175,0.0,0.0,97,0.00,,,0.00,0.0,WUHU216DAVISVP2,2013-01-10 02:54:00,
2013-01-10 02:59:00,28.3,27.5,30.05,South,176,0.0,0.0,97,0.00,,,0.00,0.0,WUHU216DAVISVP2,2013-01-10 02:59:00,
2013-01-10 03:04:00,28.3,27.5,30.05,South,175,0.0,0.0,97,0.00,,,0.00,0.0,WUHU216DAVISVP2,2013-01-10 03:04:00,
2013-01-10 03:09:00,28.3,27.8,30.05,South,175,0.0,0.0,98,0.00,,,0.00,0.0,WUHU216DAVISVP2,2013-01-10 03:09:00,
2013-01-10 03:14:00,28.5,28.0,30.05,South,176,0.0,1.0,98,0.00,,,0.00,0.0,WUHU216DAVISVP2,2013-01-10 03:14:00,
2013-01-10 03:19:00,28.6,28.1,30.05,South,175,0.0,1.0,98,0.00,,,0.00,0.0,WUHU216DAVISVP2,2013-01-10 03:19:00,
2013-01-10 03:24:00,28.7,28.2,30.05,South,175,0.0,1.0,98,0.00,,,0.00,0.0,WUHU216DAVISVP2,2013-01-10 03:24:00,
2013-01-10 03:29:00,28.8,28.3,30.04,South,175,0.0,1.0,98,0.00,,,0.00,0.0,WUHU216DAVISVP2,2013-01-10 03:29:00,
2013-01-10 03:34:00,29.0,28.5,30.04,South,175,0.0,1.0,98,0.00,,,0.00,0.0,WUHU216DAVISVP2,2013-01-10 03:34:00,
2013-01-10 03:39:00,29.1,28.6,30.04,South,175,0.0,1.0,98,0.00,,,0.00,0.0,WUHU216DAVISVP2,2013-01-10 03:39:00,
2013-01-10 03:51:00,29.2,28.7,30.04,South,175,0.0,2.0,98,0.00,,,0.00,0.0,WUHU216DAVISVP2,2013-01-10 03:51:00,
2013-01-10 03:56:00,29.3,28.8,30.03,South,175,0.0,2.0,98,0.00,,,0.00,0.0,WUHU216DAVISVP2,2013-01-10 03:56:00,
2013-01-10 04:01:00,29.3,28.8,30.03,South,175,0.0,2.0,98,0.00,,,0.00,0.0,WUHU216DAVISVP2,2013-01-10 04:01:00,
2013-01-10 04:06:00,29.3,28.8,30.02,South,175,0.0,2.0,98,0.00,,,0.00,0.0,WUHU216DAVISVP2,2013-01-10 04:06:00,
2013-01-10 04:11:00,29.3,28.8,30.02,South,175,0.0,1.0,98,0.00,,,0.00,0.0,WUHU216DAVISVP2,2013-01-10 04:11:00,
2013-01-10 04:16:00,29.4,28.9,30.02,South,175,0.0,1.0,98,0.00,,,0.00,0.0,WUHU216DAVISVP2,2013-01-10 04:16:00,
2013-01-10 04:21:00,29.4,28.9,30.02,South,175,0.0,1.0,98,0.00,,,0.00,0.0,WUHU216DAVISVP2,2013-01-10 04:21:00,
2013-01-10 04:26:00,29.4,28.9,30.02,South,175,0.0,0.0,98,0.00,,,0.00,0.0,WUHU216DAVISVP2,2013-01-10 04:26:00,
2013-01-10 04:31:00,29.5,29.0,30.02,South,175,0.0,0.0,98,0.00,,,0.00,0.0,WUHU216DAVISVP2,2013-01-10 04:31:00,
2013-01-10 04:36:00,29.6,29.1,30.02,South,175,0.0,0.0,98,0.00,,,0.00,0.0,WUHU216DAVISVP2,2013-01-10 04:36:00,
2013-01-10 04:41:00,29.6,29.1,30.02,South,175,0.0,0.0,98,0.00,,,0.00,0.0,WUHU216DAVISVP2,2013-01-10 04:41:00,
2013-01-10 04:46:00,29.8,29.3,30.03,South,175,0.0,0.0,98,0.00,,,0.00,0.0,WUHU216DAVISVP2,2013-01-10 04:46:00,
2013-01-10 04:51:00,30.0,29.5,30.03,South,175,0.0,0.0,98,0.00,,,0.00,0.0,WUHU216DAVISVP2,2013-01-10 04:51:00,
2013-01-10 04:56:00,30.1,29.6,30.03,South,175,0.0,0.0,98,0.00,,,0.00,0.0,WUHU216DAVISVP2,2013-01-10 04:56:00,
2013-01-10 05:00:00,30.2,29.7,30.03,South,175,0.0,1.0,98,0.00,,,0.00,0.0,WUHU216DAVISVP2,2013-01-10 05:00:00,
2013-01-10 05:01:00,30.2,29.7,30.03,South,180,0.0,1.0,98,0.00,,,0.00,0.0,WUHU216DAVISVP2,2013-01-10 05:01:00,
2013-01-10 05:06:00,30.3,29.8,30.03,NNW,348,0.0,1.0,98,0.00,,,0.00,0.0,WUHU216DAVISVP2,2013-01-10 05:06:00,
2013-01-10 05:11:00,30.4,29.9,30.03,NNW,348,0.0,1.0,98,0.00,,,0.00,0.0,WUHU216DAVISVP2,2013-01-10 05:11:00,
2013-01-10 05:16:00,30.5,30.0,30.03,NNW,348,0.0,1.0,98,0.00,,,0.00,0.0,WUHU216DAVISVP2,2013-01-10 05:16:00,
2013-01-10 05:21:00,30.6,30.1,30.02,NNW,348,0.0,1.0,98,0.00,,,0.00,0.0,WUHU216DAVISVP2,2013-01-10 05:21:00,
2013-01-10 05:26:00,30.6,30.1,30.02,NNW,348,0.0,0.0,98,0.00,,,0.00,0.0,WUHU216DAVISVP2,2013-01-10 05:26:00,
2013-01-10 05:31:00,30.7,30.2,30.03,NNW,348,0.0,0.0,98,0.00,,,0.00,0.0,WUHU216DAVISVP2,2013-01-10 05:31:00,
2013-01-10 05:36:00,30.8,30.3,30.03,NNW,348,0.0,0.0,98,0.00,,,0.00,0.0,WUHU216DAVISVP2,2013-01-10 05:36:00,
2013-01-10 05:41:00,30.8,30.3,30.02,NNW,348,0.0,0.0,98,0.00,,,0.00,0.0,WUHU216DAVISVP2,2013-01-10 05:41:00,
2013-01-10 05:46:00,30.9,30.4,30.02,NNW,348,0.0,0.0,98,0.00,,,0.00,0.0,WUHU216DAVISVP2,2013-01-10 05:46:00,
2013-01-10 05:51:00,31.0,30.5,30.02,NNW,348,0.0,0.0,98,0.00,,,0.00,0.0,WUHU216DAVISVP2,2013-01-10 05:51:00,
2013-01-10 05:56:00,31.1,30.6,30.02,NNW,348,0.0,0.0,98,0.00,,,0.00,0.0,WUHU216DAVISVP2,2013-01-10 05:56:00,
2013-01-10 06:01:00,31.2,30.7,30.02,NNW,348,0.0,0.0,98,0.00,,,0.00,0.0,WUHU216DAVISVP2,2013-01-10 06:01:00,
2013-01-10 06:06:00,31.3,30.8,30.02,NNW,348,0.0,0.0,98,0.00,,,0.00,0.0,WUHU216DAVISVP2,2013-01-10 06:06:00,
2013-01-10 06:11:00,31.3,30.8,30.02,NNW,348,0.0,0.0,98,0.00,,,0.00,0.0,WUHU216DAVISVP2,2013-01-10 06:11:00,
2013-01-10 06:16:00,31.4,30.9,30.02,NNW,348,0.0,0.0,98,0.00,,,0.00,0.0,WUHU216DAVISVP2,2013-01-10 06:16:00,
2013-01-10 06:21:00,31.5,31.0,30.01,NNW,348,0.0,0.0,98,0.00,,,0.00,0.0,WUHU216DAVISVP2,2013-01-10 06:21:00,
2013-01-10 06:26:00,31.6,31.1,30.01,NNW,348,0.0,0.0,98,0.00,,,0.00,0.0,WUHU216DAVISVP2,2013-01-10 06:26:00,
2013-01-10 06:31:00,31.7,31.2,30.01,NNW,348,0.0,0.0,98,0.00,,,0.00,0.0,WUHU216DAVISVP2,2013-01-10 06:31:00,
2013-01-10 06:36:00,31.8,31.3,30.01,NNW,348,0.0,1.0,98,0.00,,,0.00,0.0,WUHU216DAVISVP2,2013-01-10 06:36:00,
2013-01-10 06:41:00,31.8,31.3,30.01,NNW,348,0.0,1.0,98,0.00,,,0.00,0.0,WUHU216DAVISVP2,2013-01-10 06:41:00,
2013-01-10 06:46:00,31.9,31.4,30.01,NNW,348,0.0,1.0,98,0.00,,,0.00,0.0,WUHU216DAVISVP2,2013-01-10 06:46:00,
2013-01-10 06:51:00,32.0,31.5,30.01,NNW,348,0.0,0.0,98,0.00,,,0.00,0.0,WUHU216DAVISVP2,2013-01-10 06:51:00,
2013-01-10 06:56:00,32.1,31.6,30.01,NNW,348,0.0,0.0,98,0.00,,,0.00,0.0,WUHU216DAVISVP2,2013-01-10 06:56:00,
2013-01-10 07:01:00,32.1,31.6,30.00,NNW,348,0.0,0.0,98,0.00,,,0.00,0.0,WUHU216DAVISVP2,2013-01-10 07:01:00,
2013-01-10 07:06:00,32.1,31.6,30.01,NNW,348,0.0,0.0,98,0.00,,,0.00,0.0,WUHU216DAVISVP2,2013-01-10 07:06:00,
2013-01-10 07:11:00,32.2,31.7,30.01,NNW,348,0.0,0.0,98,0.00,,,0.00,0.0,WUHU216DAVISVP2,2013-01-10 07:11:00,
2013-01-10 07:16:00,32.3,32.0,30.01,NNW,348,0.0,0.0,99,0.00,,,0.00,0.0,WUHU216DAVISVP2,2013-01-10 07:16:00,
2013-01-10 07:21:00,32.3,32.0,30.00,NNW,348,0.0,0.0,99,0.00,,,0.00,0.0,WUHU216DAVISVP2,2013-01-10 07:21:00,
2013-01-10 07:26:00,32.4,31.9,30.00,NNW,348,0.0,0.0,98,0.00,,,0.00,0.0,WUHU216DAVISVP2,2013-01-10 07:26:00,
2013-01-10 07:31:00,32.4,31.9,30.00,NNW,348,0.0,0.0,98,0.00,,,0.00,0.0,WUHU216DAVISVP2,2013-01-10 07:31:00,
2013-01-10 07:36:00,32.4,31.9,30.00,NNW,348,0.0,0.0,98,0.00,,,0.00,0.0,WUHU216DAVISVP2,2013-01-10 07:36:00,
2013-01-10 07:41:00,32.4,31.9,30.00,NNW,348,0.0,0.0,98,0.00,,,0.00,0.0,WUHU216DAVISVP2,2013-01-10 07:41:00,
2013-01-10 07:46:00,32.5,32.0,30.00,NNW,348,0.0,0.0,98,0.00,,,0.00,0.0,WUHU216DAVISVP2,2013-01-10 07:46:00,
2013-01-10 07:51:00,32.6,32.1,30.00,NNW,348,0.0,0.0,98,0.00,,,0.00,0.0,WUHU216DAVISVP2,2013-01-10 07:51:00,
2013-01-10 07:56:00,32.7,32.2,30.00,NNW,348,0.0,0.0,98,0.00,,,0.00,0.0,WUHU216DAVISVP2,2013-01-10 07:56:00,
2013-01-10 08:01:00,32.7,32.2,30.00,NNW,348,0.0,0.0,98,0.00,,,0.00,0.0,WUHU216DAVISVP2,2013-01-10 08:01:00,
2013-01-10 08:06:00,32.8,32.3,30.00,NNW,348,0.0,0.0,98,0.00,,,0.00,0.0,WUHU216DAVISVP2,2013-01-10 08:06:00,
2013-01-10 08:11:00,32.8,32.3,30.00,NNW,348,0.0,0.0,98,0.00,,,0.00,0.0,WUHU216DAVISVP2,2013-01-10 08:11:00,
2013-01-10 08:16:00,32.9,32.6,30.00,NNW,348,0.0,0.0,99,0.00,,,0.00,0.0,WUHU216DAVISVP2,2013-01-10 08:16:00,
2013-01-10 08:21:00,32.9,32.6,30.00,NNW,348,0.0,0.0,99,0.00,,,0.00,0.0,WUHU216DAVISVP2,2013-01-10 08:21:00,
2013-01-10 08:26:00,33.0,32.7,29.99,NNW,348,0.0,0.0,99,0.00,,,0.00,5.0,WUHU216DAVISVP2,2013-01-10 08:26:00,
2013-01-10 08:31:00,33.0,32.7,29.99,NNW,348,0.0,0.0,99,0.00,,,0.00,5.0,WUHU216DAVISVP2,2013-01-10 08:31:00,
2013-01-10 08:36:00,33.1,32.8,29.99,NNW,348,0.0,0.0,99,0.00,,,0.00,7.0,WUHU216DAVISVP2,2013-01-10 08:36:00,
2013-01-10 08:41:00,33.1,32.8,29.99,NNW,348,0.0,0.0,99,0.00,,,0.00,9.0,WUHU216DAVISVP2,2013-01-10 08:41:00,
2013-01-10 08:46:00,33.1,32.6,29.99,NNW,348,0.0,0.0,98,0.00,,,0.00,11.0,WUHU216DAVISVP2,2013-01-10 08:46:00,
2013-01-10 08:51:00,33.2,32.7,29.99,NNW,348,0.0,0.0,98,0.00,,,0.00,11.0,WUHU216DAVISVP2,2013-01-10 08:51:00,
2013-01-10 08:56:00,33.3,32.8,29.99,NNW,348,0.0,0.0,98,0.00,,,0.00,14.0,WUHU216DAVISVP2,2013-01-10 08:56:00,
2013-01-10 09:01:00,33.4,32.9,29.99,NNW,348,0.0,0.0,98,0.00,,,0.00,14.0,WUHU216DAVISVP2,2013-01-10 09:01:00,
2013-01-10 09:06:00,33.5,33.2,29.99,NNW,348,0.0,0.0,99,0.00,,,0.00,16.0,WUHU216DAVISVP2,2013-01-10 09:06:00,
2013-01-10 09:11:00,33.6,33.3,30.00,NNW,348,0.0,0.0,99,0.00,,,0.00,18.0,WUHU216DAVISVP2,2013-01-10 09:11:00,
2013-01-10 09:16:00,33.7,33.2,30.00,NNW,348,0.0,0.0,98,0.00,,,0.00,14.0,WUHU216DAVISVP2,2013-01-10 09:16:00,
2013-01-10 09:21:00,33.9,33.4,30.00,NNW,348,0.0,0.0,98,0.00,,,0.00,18.0,WUHU216DAVISVP2,2013-01-10 09:21:00,
2013-01-10 09:26:00,34.0,33.5,30.00,NNW,348,0.0,1.0,98,0.00,,,0.00,19.0,WUHU216DAVISVP2,2013-01-10 09:26:00,
2013-01-10 09:31:00,34.1,33.8,30.00,NNW,348,0.0,1.0,99,0.00,,,0.00,25.0,WUHU216DAVISVP2,2013-01-10 09:31:00,
2013-01-10 09:36:00,34.2,33.9,30.00,NNW,348,0.0,1.0,99,0.00,,,0.00,28.0,WUHU216DAVISVP2,2013-01-10 09:36:00,
2013-01-10 09:41:00,34.3,34.0,30.00,NNW,348,0.0,1.0,99,0.00,,,0.00,26.0,WUHU216DAVISVP2,2013-01-10 09:41:00,
2013-01-10 09:46:00,34.4,34.1,30.00,NNW,348,0.0,0.0,99,0.00,,,0.00,26.0,WUHU216DAVISVP2,2013-01-10 09:46:00,
2013-01-10 09:51:00,34.5,34.2,30.00,NNW,348,0.0,1.0,99,0.00,,,0.00,26.0,WUHU216DAVISVP2,2013-01-10 09:51:00,
2013-01-10 09:56:00,34.6,34.3,30.00,NNW,348,0.0,1.0,99,0.00,,,0.00,37.0,WUHU216DAVISVP2,2013-01-10 09:56:00,
2013-01-10 10:01:00,34.7,34.4,30.00,NNW,348,0.0,1.0,99,0.00,,,0.00,37.0,WUHU216DAVISVP2,2013-01-10 10:01:00,
2013-01-10 10:06:00,34.8,34.5,30.01,NNW,348,0.0,1.0,99,0.00,,,0.00,35.0,WUHU216DAVISVP2,2013-01-10 10:06:00,
2013-01-10 10:11:00,35.0,34.7,30.01,NNW,348,0.0,1.0,99,0.00,,,0.00,33.0,WUHU216DAVISVP2,2013-01-10 10:11:00,
2013-01-10 10:16:00,35.1,34.8,30.01,NNW,348,0.0,1.0,99,0.00,,,0.00,32.0,WUHU216DAVISVP2,2013-01-10 10:16:00,
2013-01-10 10:22:00,35.2,34.9,30.00,NNW,348,0.0,1.0,99,0.00,,,0.00,42.0,WUHU216DAVISVP2,2013-01-10 10:22:00,
2013-01-10 10:26:00,35.3,35.0,30.00,WSW,251,0.0,1.0,99,0.00,,,0.00,49.0,WUHU216DAVISVP2,2013-01-10 10:26:00,
2013-01-10 10:32:00,35.4,35.1,30.00,NNW,330,0.0,4.0,99,0.00,,,0.00,49.0,WUHU216DAVISVP2,2013-01-10 10:32:00,
2013-01-10 10:36:00,35.5,35.2,30.00,SW,224,0.0,4.0,99,0.00,,,0.00,46.0,WUHU216DAVISVP2,2013-01-10 10:36:00,
2013-01-10 10:42:00,35.5,35.2,30.00,NW,316,0.0,4.0,99,0.00,,,0.00,53.0,WUHU216DAVISVP2,2013-01-10 10:42:00,
2013-01-10 10:47:00,35.5,35.0,30.00,SSE,159,0.0,4.0,98,0.00,,,0.00,56.0,WUHU216DAVISVP2,2013-01-10 10:47:00,
2013-01-10 10:52:00,35.5,35.0,30.00,SE,134,0.0,2.0,98,0.00,,,0.00,53.0,WUHU216DAVISVP2,2013-01-10 10:52:00,
2013-01-10 10:56:00,35.5,35.0,30.00,SE,144,0.0,4.0,98,0.00,,,0.00,53.0,WUHU216DAVISVP2,2013-01-10 10:56:00,
2013-01-10 11:01:00,35.6,35.1,29.99,SSW,194,0.0,4.0,98,0.00,,,0.00,56.0,WUHU216DAVISVP2,2013-01-10 11:01:00,
2013-01-10 11:06:00,35.6,35.3,29.99,SSW,192,1.0,4.0,99,0.00,,,0.00,54.0,WUHU216DAVISVP2,2013-01-10 11:06:00,
2013-01-10 11:11:00,35.7,35.4,29.98,SSW,192,0.0,4.0,99,0.00,,,0.00,72.0,WUHU216DAVISVP2,2013-01-10 11:11:00,
2013-01-10 11:16:00,35.8,35.3,29.98,SSW,192,0.0,4.0,98,0.00,,,0.00,67.0,WUHU216DAVISVP2,2013-01-10 11:16:00,
2013-01-10 11:21:00,35.8,35.3,29.98,SSW,192,0.0,4.0,98,0.00,,,0.00,70.0,WUHU216DAVISVP2,2013-01-10 11:21:00,
2013-01-10 11:26:00,35.9,35.4,29.98,South,186,0.0,2.0,98,0.00,,,0.00,67.0,WUHU216DAVISVP2,2013-01-10 11:26:00,
2013-01-10 11:31:00,35.9,35.4,29.98,South,186,0.0,2.0,98,0.00,,,0.00,65.0,WUHU216DAVISVP2,2013-01-10 11:31:00,
2013-01-10 11:36:00,36.0,35.5,29.98,South,186,0.0,1.0,98,0.00,,,0.00,67.0,WUHU216DAVISVP2,2013-01-10 11:36:00,
2013-01-10 11:41:00,36.0,35.5,29.98,SSW,198,0.0,2.0,98,0.00,,,0.00,56.0,WUHU216DAVISVP2,2013-01-10 11:41:00,
2013-01-10 11:46:00,36.0,35.2,29.98,SSW,198,0.0,2.0,97,0.00,,,0.00,69.0,WUHU216DAVISVP2,2013-01-10 11:46:00,
2013-01-10 11:51:00,36.0,35.2,29.98,SSW,198,0.0,2.0,97,0.00,,,0.00,65.0,WUHU216DAVISVP2,2013-01-10 11:51:00,
2013-01-10 11:56:00,36.1,35.3,29.98,SSW,198,0.0,2.0,97,0.00,,,0.00,58.0,WUHU216DAVISVP2,2013-01-10 11:56:00,
2013-01-10 12:01:00,36.2,35.4,29.98,SSW,198,0.0,1.0,97,0.00,,,0.00,54.0,WUHU216DAVISVP2,2013-01-10 12:01:00,
2013-01-10 12:06:00,36.3,35.5,29.97,SSW,198,0.0,1.0,97,0.00,,,0.00,70.0,WUHU216DAVISVP2,2013-01-10 12:06:00,
2013-01-10 12:11:00,36.4,35.6,29.97,SSE,150,1.0,4.0,97,0.00,,,0.00,69.0,WUHU216DAVISVP2,2013-01-10 12:11:00,
2013-01-10 12:16:00,36.5,35.7,29.97,South,173,0.0,4.0,97,0.00,,,0.00,70.0,WUHU216DAVISVP2,2013-01-10 12:16:00,
2013-01-10 12:21:00,36.6,35.5,29.97,SSW,205,0.0,4.0,96,0.00,,,0.00,51.0,WUHU216DAVISVP2,2013-01-10 12:21:00,
2013-01-10 12:26:00,36.5,35.4,29.97,SSW,204,0.0,4.0,96,0.00,,,0.00,47.0,WUHU216DAVISVP2,2013-01-10 12:26:00,
2013-01-10 12:31:00,36.6,35.5,29.97,SSW,204,0.0,2.0,96,0.00,,,0.00,46.0,WUHU216DAVISVP2,2013-01-10 12:31:00,
2013-01-10 12:36:00,36.6,35.5,29.97,NW,323,0.0,2.0,96,0.00,,,0.00,58.0,WUHU216DAVISVP2,2013-01-10 12:36:00,
2013-01-10 12:41:00,36.6,35.3,29.97,South,188,2.0,5.0,95,0.00,,,0.00,56.0,WUHU216DAVISVP2,2013-01-10 12:41:00,
2013-01-10 12:46:00,36.7,35.4,29.96,SSW,198,0.0,5.0,95,0.00,,,0.00,58.0,WUHU216DAVISVP2,2013-01-10 12:46:00,
2013-01-10 12:51:00,36.7,35.4,29.96,South,190,0.0,5.0,95,0.00,,,0.00,49.0,WUHU216DAVISVP2,2013-01-10 12:51:00,
2013-01-10 12:56:00,36.8,35.5,29.96,SSE,158,1.0,5.0,95,0.00,,,0.00,47.0,WUHU216DAVISVP2,2013-01-10 12:56:00,
2013-01-10 13:01:00,36.9,35.6,29.96,SSE,158,0.0,4.0,95,0.00,,,0.00,44.0,WUHU216DAVISVP2,2013-01-10 13:01:00,
2013-01-10 13:06:00,36.9,35.6,29.95,SSE,166,0.0,4.0,95,0.00,,,0.00,46.0,WUHU216DAVISVP2,2013-01-10 13:06:00,
2013-01-10 13:11:00,37.0,35.7,29.95,SSE,166,0.0,4.0,95,0.00,,,0.00,46.0,WUHU216DAVISVP2,2013-01-10 13:11:00,
2013-01-10 13:16:00,37.1,35.8,29.95,SSE,157,0.0,2.0,95,0.00,,,0.00,47.0,WUHU216DAVISVP2,2013-01-10 13:16:00,
2013-01-10 13:21:00,37.1,35.8,29.95,SSE,161,0.0,2.0,95,0.00,,,0.00,42.0,WUHU216DAVISVP2,2013-01-10 13:21:00,
2013-01-10 13:26:00,37.2,35.9,29.95,SSE,161,0.0,1.0,95,0.00,,,0.00,42.0,WUHU216DAVISVP2,2013-01-10 13:26:00,
2013-01-10 13:31:00,37.2,35.6,29.95,SSE,161,0.0,1.0,94,0.00,,,0.00,39.0,WUHU216DAVISVP2,2013-01-10 13:31:00,
2013-01-10 13:36:00,37.2,35.6,29.95,SSE,161,0.0,0.0,94,0.00,,,0.00,35.0,WUHU216DAVISVP2,2013-01-10 13:36:00,
2013-01-10 13:41:00,37.3,36.0,29.94,SSE,161,0.0,0.0,95,0.00,,,0.00,39.0,WUHU216DAVISVP2,2013-01-10 13:41:00,
2013-01-10 13:46:00,37.3,36.0,29.94,SSE,161,0.0,0.0,95,0.00,,,0.00,37.0,WUHU216DAVISVP2,2013-01-10 13:46:00,
2013-01-10 13:51:00,37.4,36.1,29.94,SSE,161,0.0,0.0,95,0.00,,,0.00,37.0,WUHU216DAVISVP2,2013-01-10 13:51:00,
2013-01-10 13:56:00,37.5,36.2,29.94,SSE,161,0.0,0.0,95,0.00,,,0.00,44.0,WUHU216DAVISVP2,2013-01-10 13:56:00,
2013-01-10 14:01:00,37.5,35.9,29.94,SSE,161,0.0,0.0,94,0.00,,,0.00,37.0,WUHU216DAVISVP2,2013-01-10 14:01:00,
2013-01-10 14:06:00,37.4,35.8,29.94,SSE,161,0.0,0.0,94,0.00,,,0.00,33.0,WUHU216DAVISVP2,2013-01-10 14:06:00,
2013-01-10 14:11:00,37.5,35.9,29.94,SSE,161,0.0,1.0,94,0.00,,,0.00,26.0,WUHU216DAVISVP2,2013-01-10 14:11:00,
2013-01-10 14:16:00,37.5,35.9,29.94,SSE,161,0.0,1.0,94,0.00,,,0.00,30.0,WUHU216DAVISVP2,2013-01-10 14:16:00,
2013-01-10 14:21:00,37.5,35.9,29.94,SSE,161,0.0,1.0,94,0.00,,,0.00,28.0,WUHU216DAVISVP2,2013-01-10 14:21:00,
2013-01-10 14:26:00,37.5,35.9,29.94,SSE,161,0.0,1.0,94,0.00,,,0.00,25.0,WUHU216DAVISVP2,2013-01-10 14:26:00,
2013-01-10 14:31:00,37.5,35.9,29.94,SSE,161,0.0,1.0,94,0.00,,,0.00,23.0,WUHU216DAVISVP2,2013-01-10 14:31:00,
2013-01-10 14:36:00,37.5,35.9,29.94,South,169,0.0,4.0,94,0.00,,,0.00,19.0,WUHU216DAVISVP2,2013-01-10 14:36:00,
2013-01-10 14:41:00,37.6,36.0,29.94,SSE,168,0.0,4.0,94,0.00,,,0.00,23.0,WUHU216DAVISVP2,2013-01-10 14:41:00,
2013-01-10 14:46:00,37.6,36.0,29.94,SSE,167,0.0,4.0,94,0.00,,,0.00,23.0,WUHU216DAVISVP2,2013-01-10 14:46:00,
2013-01-10 14:51:00,37.5,35.9,29.94,SSE,167,0.0,4.0,94,0.00,,,0.00,21.0,WUHU216DAVISVP2,2013-01-10 14:51:00,
2013-01-10 14:56:00,37.6,36.0,29.94,SSE,167,0.0,1.0,94,0.00,,,0.00,23.0,WUHU216DAVISVP2,2013-01-10 14:56:00,
2013-01-10 15:01:00,37.6,36.0,29.94,SSE,167,0.0,1.0,94,0.00,,,0.00,25.0,WUHU216DAVISVP2,2013-01-10 15:01:00,
2013-01-10 15:06:00,37.6,36.0,29.94,SSE,167,1.0,1.0,94,0.00,,,0.00,21.0,WUHU216DAVISVP2,2013-01-10 15:06:00,
2013-01-10 15:11:00,37.7,36.1,29.94,SSE,167,0.0,1.0,94,0.00,,,0.00,21.0,WUHU216DAVISVP2,2013-01-10 15:11:00,
2013-01-10 15:16:00,37.7,36.1,29.94,SSE,167,0.0,1.0,94,0.00,,,0.00,18.0,WUHU216DAVISVP2,2013-01-10 15:16:00,
2013-01-10 15:21:00,37.7,36.1,29.94,SSE,167,0.0,1.0,94,0.00,,,0.00,16.0,WUHU216DAVISVP2,2013-01-10 15:21:00,
2013-01-10 15:26:00,37.7,36.1,29.93,SSE,167,0.0,1.0,94,0.00,,,0.00,18.0,WUHU216DAVISVP2,2013-01-10 15:26:00,
2013-01-10 15:31:00,37.7,36.1,29.93,SSE,167,0.0,1.0,94,0.00,,,0.00,16.0,WUHU216DAVISVP2,2013-01-10 15:31:00,
2013-01-10 15:36:00,37.8,36.2,29.93,SSE,167,0.0,2.0,94,0.00,,,0.00,12.0,WUHU216DAVISVP2,2013-01-10 15:36:00,
2013-01-10 15:41:00,37.8,36.2,29.94,SSE,167,0.0,2.0,94,0.00,,,0.00,11.0,WUHU216DAVISVP2,2013-01-10 15:41:00,
2013-01-10 15:46:00,37.7,36.1,29.93,SSE,167,0.0,2.0,94,0.00,,,0.00,9.0,WUHU216DAVISVP2,2013-01-10 15:46:00,
2013-01-10 15:51:00,37.7,35.8,29.93,SSE,167,0.0,1.0,93,0.00,,,0.00,7.0,WUHU216DAVISVP2,2013-01-10 15:51:00,
2013-01-10 15:56:00,37.7,35.8,29.93,SSE,167,0.0,1.0,93,0.00,,,0.00,7.0,WUHU216DAVISVP2,2013-01-10 15:56:00,
2013-01-10 16:01:00,37.7,35.9,29.93,SSE,167,0.0,1.0,93,0.00,,,0.00,0.0,WUHU216DAVISVP2,2013-01-10 16:01:00,
2013-01-10 16:06:00,37.7,35.9,29.93,SSE,167,0.0,1.0,93,0.00,,,0.00,0.0,WUHU216DAVISVP2,2013-01-10 16:06:00,
2013-01-10 16:11:00,37.6,35.7,29.93,SSE,167,0.0,1.0,93,0.00,,,0.00,0.0,WUHU216DAVISVP2,2013-01-10 16:11:00,
2013-01-10 16:16:00,37.6,35.7,29.93,SSE,167,0.0,1.0,93,0.00,,,0.00,0.0,WUHU216DAVISVP2,2013-01-10 16:16:00,
2013-01-10 16:21:00,37.5,35.6,29.93,SSE,167,0.0,1.0,93,0.00,,,0.00,0.0,WUHU216DAVISVP2,2013-01-10 16:21:00,
2013-01-10 16:26:00,37.5,35.7,29.93,SSE,167,0.0,2.0,93,0.00,,,0.00,0.0,WUHU216DAVISVP2,2013-01-10 16:26:00,
2013-01-10 16:31:00,37.5,35.7,29.93,SSE,167,0.0,2.0,93,0.00,,,0.00,0.0,WUHU216DAVISVP2,2013-01-10 16:31:00,
2013-01-10 16:36:00,37.4,35.5,29.93,SSE,167,0.0,2.0,93,0.00,,,0.00,0.0,WUHU216DAVISVP2,2013-01-10 16:36:00,
2013-01-10 16:41:00,37.3,35.4,29.93,SSE,168,0.0,2.0,93,0.00,,,0.00,0.0,WUHU216DAVISVP2,2013-01-10 16:41:00,
2013-01-10 16:46:00,37.3,35.4,29.94,SSE,168,0.0,1.0,93,0.00,,,0.00,0.0,WUHU216DAVISVP2,2013-01-10 16:46:00,
2013-01-10 16:51:00,37.3,35.4,29.94,SSE,168,1.0,1.0,93,0.00,,,0.00,0.0,WUHU216DAVISVP2,2013-01-10 16:51:00,
2013-01-10 16:56:00,37.3,35.4,29.94,SSE,168,0.0,1.0,93,0.00,,,0.00,0.0,WUHU216DAVISVP2,2013-01-10 16:56:00,
2013-01-10 17:01:00,37.3,35.5,29.93,SSE,158,0.0,2.0,93,0.00,,,0.00,0.0,WUHU216DAVISVP2,2013-01-10 17:01:00,
2013-01-10 17:06:00,37.3,35.5,29.93,SSE,157,1.0,2.0,93,0.00,,,0.00,0.0,WUHU216DAVISVP2,2013-01-10 17:06:00,
2013-01-10 17:11:00,37.2,35.3,29.94,SSE,157,0.0,2.0,93,0.00,,,0.00,0.0,WUHU216DAVISVP2,2013-01-10 17:11:00,
2013-01-10 17:16:00,37.2,35.3,29.94,SSE,157,0.0,2.0,93,0.00,,,0.00,0.0,WUHU216DAVISVP2,2013-01-10 17:16:00,
2013-01-10 17:21:00,37.2,35.3,29.94,SSE,157,0.0,2.0,93,0.00,,,0.00,0.0,WUHU216DAVISVP2,2013-01-10 17:21:00,
2013-01-10 17:26:00,37.1,35.2,29.93,SSE,157,0.0,1.0,93,0.00,,,0.00,0.0,WUHU216DAVISVP2,2013-01-10 17:26:00,
2013-01-10 17:31:00,37.1,35.2,29.93,SSE,157,0.0,1.0,93,0.00,,,0.00,0.0,WUHU216DAVISVP2,2013-01-10 17:31:00,
2013-01-10 17:36:00,37.1,35.5,29.94,SSE,157,0.0,0.0,94,0.00,,,0.00,0.0,WUHU216DAVISVP2,2013-01-10 17:36:00,
2013-01-10 17:41:00,37.0,35.4,29.94,SSE,157,0.0,1.0,94,0.00,,,0.00,0.0,WUHU216DAVISVP2,2013-01-10 17:41:00,
2013-01-10 17:46:00,37.0,35.4,29.94,SSE,157,0.0,1.0,94,0.00,,,0.00,0.0,WUHU216DAVISVP2,2013-01-10 17:46:00,
2013-01-10 17:51:00,37.0,35.4,29.94,SSE,157,0.0,1.0,94,0.00,,,0.00,0.0,WUHU216DAVISVP2,2013-01-10 17:51:00,
2013-01-10 17:56:00,37.0,35.4,29.93,SSE,157,0.0,1.0,94,0.00,,,0.00,0.0,WUHU216DAVISVP2,2013-01-10 17:56:00,
2013-01-10 18:01:00,37.0,35.4,29.93,SSE,157,0.0,1.0,94,0.00,,,0.00,0.0,WUHU216DAVISVP2,2013-01-10 18:01:00,
2013-01-10 18:06:00,37.0,35.4,29.94,SSE,157,0.0,1.0,94,0.00,,,0.00,0.0,WUHU216DAVISVP2,2013-01-10 18:06:00,
2013-01-10 18:11:00,37.0,35.4,29.94,SSE,157,0.0,1.0,94,0.00,,,0.00,0.0,WUHU216DAVISVP2,2013-01-10 18:11:00,
2013-01-10 18:16:00,37.0,35.4,29.93,SSE,157,0.0,1.0,94,0.00,,,0.00,0.0,WUHU216DAVISVP2,2013-01-10 18:16:00,
2013-01-10 18:21:00,37.0,35.4,29.93,SSE,157,0.0,0.0,94,0.00,,,0.00,0.0,WUHU216DAVISVP2,2013-01-10 18:21:00,
2013-01-10 18:26:00,37.0,35.4,29.94,SSE,157,0.0,0.0,94,0.00,,,0.00,0.0,WUHU216DAVISVP2,2013-01-10 18:26:00,
2013-01-10 18:31:00,36.9,35.3,29.93,SSE,157,0.0,0.0,94,0.00,,,0.00,0.0,WUHU216DAVISVP2,2013-01-10 18:31:00,
2013-01-10 18:36:00,36.9,35.3,29.93,SSE,157,0.0,0.0,94,0.00,,,0.00,0.0,WUHU216DAVISVP2,2013-01-10 18:36:00,
2013-01-10 18:41:00,36.9,35.3,29.93,SSE,157,0.0,0.0,94,0.00,,,0.00,0.0,WUHU216DAVISVP2,2013-01-10 18:41:00,
2013-01-10 18:46:00,36.9,35.3,29.94,SSE,157,1.0,2.0,94,0.00,,,0.00,0.0,WUHU216DAVISVP2,2013-01-10 18:46:00,
2013-01-10 18:51:00,36.9,35.3,29.94,SSE,157,0.0,2.0,94,0.00,,,0.00,0.0,WUHU216DAVISVP2,2013-01-10 18:51:00,
2013-01-10 18:56:00,36.9,35.3,29.94,SSE,157,0.0,2.0,94,0.00,,,0.00,0.0,WUHU216DAVISVP2,2013-01-10 18:56:00,
2013-01-10 19:01:00,36.9,35.3,29.94,SSE,157,0.0,2.0,94,0.00,,,0.00,0.0,WUHU216DAVISVP2,2013-01-10 19:01:00,
2013-01-10 19:10:00,36.9,35.3,29.94,SSE,157,0.0,2.0,94,0.00,,,0.00,0.0,WUHU216DAVISVP2,2013-01-10 19:10:00,
2013-01-10 19:15:00,36.9,35.3,29.94,SSE,157,0.0,1.0,94,0.00,,,0.00,0.0,WUHU216DAVISVP2,2013-01-10 19:15:00,
2013-01-10 19:20:00,36.9,35.3,29.94,South,175,1.0,2.0,94,0.00,,,0.00,0.0,WUHU216DAVISVP2,2013-01-10 19:20:00,
2013-01-10 19:25:00,36.9,35.3,29.94,South,171,0.0,2.0,94,0.00,,,0.00,0.0,WUHU216DAVISVP2,2013-01-10 19:25:00,
2013-01-10 19:30:00,36.9,35.3,29.94,SE,140,0.0,2.0,94,0.00,,,0.00,0.0,WUHU216DAVISVP2,2013-01-10 19:30:00,
2013-01-10 19:35:00,36.9,35.3,29.94,SE,140,0.0,2.0,94,0.00,,,0.00,0.0,WUHU216DAVISVP2,2013-01-10 19:35:00,
2013-01-10 19:40:00,36.9,35.3,29.95,SE,140,0.0,2.0,94,0.00,,,0.00,0.0,WUHU216DAVISVP2,2013-01-10 19:40:00,
2013-01-10 19:45:00,36.9,35.3,29.94,SSE,153,1.0,2.0,94,0.00,,,0.00,0.0,WUHU216DAVISVP2,2013-01-10 19:45:00,
2013-01-10 19:50:00,36.9,35.3,29.95,SSE,153,1.0,2.0,94,0.00,,,0.00,0.0,WUHU216DAVISVP2,2013-01-10 19:50:00,
2013-01-10 19:55:00,36.8,35.2,29.95,SSE,155,0.0,2.0,94,0.00,,,0.00,0.0,WUHU216DAVISVP2,2013-01-10 19:55:00,
2013-01-10 20:00:00,36.8,35.2,29.95,SSE,155,0.0,2.0,94,0.00,,,0.00,0.0,WUHU216DAVISVP2,2013-01-10 20:00:00,
2013-01-10 20:05:00,36.8,35.2,29.95,SSE,159,0.0,2.0,94,0.00,,,0.00,0.0,WUHU216DAVISVP2,2013-01-10 20:05:00,
2013-01-10 20:10:00,36.8,35.2,29.95,SSE,159,0.0,2.0,94,0.00,,,0.00,0.0,WUHU216DAVISVP2,2013-01-10 20:10:00,
2013-01-10 20:15:00,36.8,35.2,29.95,SSE,159,0.0,2.0,94,0.00,,,0.00,0.0,WUHU216DAVISVP2,2013-01-10 20:15:00,
2013-01-10 20:20:00,36.8,35.5,29.96,SSE,159,0.0,2.0,95,0.00,,,0.00,0.0,WUHU216DAVISVP2,2013-01-10 20:20:00,
2013-01-10 20:25:00,36.9,35.3,29.96,SE,138,0.0,2.0,94,0.00,,,0.00,0.0,WUHU216DAVISVP2,2013-01-10 20:25:00,
2013-01-10 20:30:00,36.9,35.3,29.96,South,185,0.0,2.0,94,0.00,,,0.00,0.0,WUHU216DAVISVP2,2013-01-10 20:30:00,
2013-01-10 20:35:00,36.9,35.3,29.96,South,169,1.0,5.0,94,0.00,,,0.00,0.0,WUHU216DAVISVP2,2013-01-10 20:35:00,
2013-01-10 20:40:00,36.8,35.2,29.97,South,175,0.0,5.0,94,0.00,,,0.00,0.0,WUHU216DAVISVP2,2013-01-10 20:40:00,
2013-01-10 20:45:00,36.8,35.2,29.97,SSE,165,0.0,5.0,94,0.00,,,0.00,0.0,WUHU216DAVISVP2,2013-01-10 20:45:00,
2013-01-10 20:50:00,36.8,35.2,29.97,SSW,193,1.0,5.0,94,0.00,,,0.00,0.0,WUHU216DAVISVP2,2013-01-10 20:50:00,
2013-01-10 20:55:00,36.8,35.2,29.97,South,190,0.0,5.0,94,0.00,,,0.00,0.0,WUHU216DAVISVP2,2013-01-10 20:55:00,
2013-01-10 21:00:00,36.8,35.2,29.97,South,190,0.0,4.0,94,0.00,,,0.00,0.0,WUHU216DAVISVP2,2013-01-10 21:00:00,
2013-01-10 21:05:00,36.7,35.1,29.97,SE,131,0.0,4.0,94,0.00,,,0.00,0.0,WUHU216DAVISVP2,2013-01-10 21:05:00,
2013-01-10 21:10:00,36.7,35.1,29.97,South,172,0.0,2.0,94,0.00,,,0.00,0.0,WUHU216DAVISVP2,2013-01-10 21:10:00,
2013-01-10 21:15:00,36.6,35.0,29.97,SSW,197,0.0,2.0,94,0.00,,,0.00,0.0,WUHU216DAVISVP2,2013-01-10 21:15:00,
2013-01-10 21:20:00,36.6,34.7,29.97,SSE,157,0.0,4.0,93,0.00,,,0.00,0.0,WUHU216DAVISVP2,2013-01-10 21:20:00,
2013-01-10 21:25:00,36.5,34.6,29.97,South,180,0.0,4.0,93,0.00,,,0.00,0.0,WUHU216DAVISVP2,2013-01-10 21:25:00,
2013-01-10 21:30:00,36.4,34.5,29.97,South,177,0.0,4.0,93,0.00,,,0.00,0.0,WUHU216DAVISVP2,2013-01-10 21:30:00,
2013-01-10 21:35:00,36.3,34.4,29.97,South,177,0.0,4.0,93,0.00,,,0.00,0.0,WUHU216DAVISVP2,2013-01-10 21:35:00,
2013-01-10 21:40:00,36.3,34.4,29.98,SSE,157,0.0,2.0,93,0.00,,,0.00,0.0,WUHU216DAVISVP2,2013-01-10 21:40:00,
2013-01-10 21:45:00,36.2,34.3,29.97,SSE,158,0.0,2.0,93,0.00,,,0.00,0.0,WUHU216DAVISVP2,2013-01-10 21:45:00,
2013-01-10 21:50:00,36.1,34.2,29.97,South,171,0.0,2.0,93,0.00,,,0.00,0.0,WUHU216DAVISVP2,2013-01-10 21:50:00,
2013-01-10 21:55:00,36.1,34.5,29.97,SSW,194,0.0,2.0,94,0.00,,,0.00,0.0,WUHU216DAVISVP2,2013-01-10 21:55:00,
2013-01-10 22:00:00,36.0,34.4,29.97,SSE,163,0.0,4.0,94,0.00,,,0.00,0.0,WUHU216DAVISVP2,2013-01-10 22:00:00,
2013-01-10 22:05:00,35.9,34.3,29.97,SSE,167,0.0,4.0,94,0.00,,,0.00,0.0,WUHU216DAVISVP2,2013-01-10 22:05:00,
2013-01-10 22:10:00,35.8,34.2,29.98,SSE,167,0.0,4.0,94,0.00,,,0.00,0.0,WUHU216DAVISVP2,2013-01-10 22:10:00,
2013-01-10 22:15:00,35.8,34.2,29.98,SSE,167,0.0,4.0,94,0.00,,,0.00,0.0,WUHU216DAVISVP2,2013-01-10 22:15:00,
2013-01-10 22:20:00,35.7,34.1,29.98,SSE,162,0.0,2.0,94,0.00,,,0.00,0.0,WUHU216DAVISVP2,2013-01-10 22:20:00,
2013-01-10 22:25:00,35.6,34.0,29.98,South,188,0.0,4.0,94,0.00,,,0.00,0.0,WUHU216DAVISVP2,2013-01-10 22:25:00,
2013-01-10 22:30:00,35.6,34.0,29.98,SSE,155,0.0,5.0,94,0.00,,,0.00,0.0,WUHU216DAVISVP2,2013-01-10 22:30:00,
2013-01-10 22:35:00,35.5,33.9,29.98,SSW,194,0.0,5.0,94,0.00,,,0.00,0.0,WUHU216DAVISVP2,2013-01-10 22:35:00,
2013-01-10 22:40:00,35.5,33.9,29.99,SSW,194,0.0,5.0,94,0.00,,,0.00,0.0,WUHU216DAVISVP2,2013-01-10 22:40:00,
2013-01-10 22:45:00,35.4,33.8,29.99,SSW,194,0.0,2.0,94,0.00,,,0.00,0.0,WUHU216DAVISVP2,2013-01-10 22:45:00,
2013-01-10 22:50:00,35.4,33.8,29.99,SSW,194,0.0,2.0,94,0.00,,,0.00,0.0,WUHU216DAVISVP2,2013-01-10 22:50:00,
2013-01-10 22:56:00,35.3,34.0,29.99,South,187,0.0,2.0,95,0.00,,,0.00,0.0,WUHU216DAVISVP2,2013-01-10 22:56:00,
2013-01-10 23:01:00,35.3,34.0,29.99,South,187,0.0,1.0,95,0.00,,,0.00,0.0,WUHU216DAVISVP2,2013-01-10 23:01:00,
2013-01-10 23:06:00,35.2,33.9,29.99,South,187,0.0,1.0,95,0.00,,,0.00,0.0,WUHU216DAVISVP2,2013-01-10 23:06:00,
2013-01-10 23:11:00,35.2,33.9,29.99,SW,214,0.0,1.0,95,0.00,,,0.00,0.0,WUHU216DAVISVP2,2013-01-10 23:11:00,
2013-01-10 23:16:00,35.1,33.8,29.99,SW,214,0.0,1.0,95,0.00,,,0.00,0.0,WUHU216DAVISVP2,2013-01-10 23:16:00,
2013-01-10 23:21:00,35.1,33.8,30.00,SW,214,0.0,1.0,95,0.00,,,0.00,0.0,WUHU216DAVISVP2,2013-01-10 23:21:00,
2013-01-10 23:26:00,35.1,33.8,29.99,SW,214,0.0,1.0,95,0.00,,,0.00,0.0,WUHU216DAVISVP2,2013-01-10 23:26:00,
2013-01-10 23:31:00,35.1,33.8,29.99,SW,214,0.0,0.0,95,0.00,,,0.00,0.0,WUHU216DAVISVP2,2013-01-10 23:31:00,
2013-01-10 23:36:00,35.1,33.8,30.00,SW,214,0.0,0.0,95,0.00,,,0.00,0.0,WUHU216DAVISVP2,2013-01-10 23:36:00,
2013-01-10 23:41:00,35.0,33.7,30.00,SW,214,0.0,0.0,95,0.00,,,0.00,0.0,WUHU216DAVISVP2,2013-01-10 23:41:00,
2013-01-10 23:46:00,34.9,33.6,30.00,SW,214,0.0,0.0,95,0.00,,,0.00,0.0,WUHU216DAVISVP2,2013-01-10 23:46:00,
2013-01-10 23:51:00,34.9,33.6,30.00,SW,214,0.0,0.0,95,0.00,,,0.00,0.0,WUHU216DAVISVP2,2013-01-10 23:51:00,
2013-01-10 23:56:00,34.9,33.6,30.00,SW,214,0.0,1.0,95,0.00,,,0.00,0.0,WUHU216DAVISVP2,2013-01-10 23:56:00,